Timmins/Victor M. Power
CYTS : now visible

Airfield :











YOU CAN JOIN US ON...

 
LOGIN :

Register | Disclaimer

   EN    FR    IT 

 









Legend :    VFR   Marginal VFR   IFR   Intensive IFR   Very Intensive IFR
Visi :
Ceiling :
>= 8 km
>= 3000ft
5 to 8 km
1000 to 3000 ft
1500m to 5 km
500 to 1000 ft
800 to 1500m
200 to 500 ft
< 800m
< 200 ft
Symbols :   Thunderstorms  Fog  Heavy snow  Heavy precipitations  Wind > 20 kt






- Airport Elevation : 967 ft
- IATA code : YTS


CYTS - Timmins/Victor M. Power

CURRENT METAR :
  • 121800Z 36012G19KT 280V020 15SM BKN080 17/M02 A3025 RMK AC7 VIRGA CVCTV CLD EMBD SLP256 DENSITY ALT 1000FT

EXPIRED METARs :
  • 121740Z 31011G18KT 300V030 15SM VCSH BKN080 17/M02 A3026 RMK AC7 VIRGA CVCTV CLD EMBD SLP256 DENSITY ALT 1100FT
  • 121700Z 34009G17KT 290V020 15SM SCT080 SCT140 17/M02 A3026 RMK AC3AC1 SLP257 DENSITY ALT 1100FT
  • 121600Z 31013G21KT 260V350 15SM FEW080 SCT140 16/M03 A3026 RMK AC1AC2 SLP258 DENSITY ALT 1000FT

TAF TAF CYTS
Valid from the 12 at 14:00 until the 13 at 02:00 UTC


121338Z 1214/1302 30006KT P6SM FEW210
FM121800 32010G20KT P6SM BKN070
TEMPO 1218/1302 SCT070 RMK NXT FCST BY 122000Z
CZYZ FIR / North America



MET'MAP, your aeronautical weather chart ! - Copyright ORBIFLY December 2007 - Disclaimer

ORBIFLY MET'MAP TEAM :

Programming & Development : Alexandra Zaïnal
Concept & original design : Baudouin d'Aumeries
Assistance for programming : Marc-Olivier Méhu
Technical & hardware support : Manuel Goepfert

Contact : metmap@orbifly.com




SOURCES & CREDITS :

   NOAA       Earth
Advisory